Alaska Titan — WDE4789 — position and weather

sailwx.info

Track history (hours):
 
Tides and Currents Weather Stations Pressure Air Temp Water Temp Dewpoint Dewpoint Depression Visibility Wind Speed Wind Dir Waves Ship Positions

Alaska Titan

Owner: WESTERN TOWBOAT CO, Seattle, WA. More information available from US FCC via Universal Licensing System and Coast Guard Vessel Documentation Center.

Last reported at 2016-May-25 01:34 UTC. Time now 2016-May-29 09:38 UTC.
Position N 47°40' W 122°23'.

Length 40 m.

Type: Tow > 200 m length. MMSI: 367357890.

Date/timePositionNaut miles runAvg speedWind from/ knotsBaromVisibWave heightAir tempDewpointWater temp
2016-May-25 01:34N 47°40' W 122°23'3 2.7
2016-May-25 00:33N 47°37' W 122°24'2 2.3
2016-May-24 23:34N 47°36' W 122°22'8 8.0
2016-May-24 22:33N 47°43' W 122°28'10 9.7
2016-May-24 21:33N 47°52' W 122°29'28 8.3
2016-May-24 18:14N 48°17' W 122°48'811.6
2016-May-24 17:31N 48°25' W 122°45'1313.0
2016-May-24 16:33N 48°38' W 122°44'10 9.8
2016-May-24 15:33N 48°46' W 122°51'1110.8
2016-May-24 14:33N 48°53' W 123°05'1010.1
2016-May-24 13:33N 48°59' W 123°17'10 9.7
2016-May-24 12:33N 49°06' W 123°27'1010.0
2016-May-24 11:32N 49°14' W 123°38'21 9.6
2016-May-24 09:23N 49°26' W 124°03'27 9.6
2016-May-24 06:33N 49°41' W 124°38'9 9.0
2016-May-24 05:33N 49°46' W 124°49'1010.2
2016-May-24 04:32N 49°53' W 125°02'10 9.9
2016-May-24 03:33N 49°60' W 125°12'6 6.3
2016-May-24 02:33N 50°05' W 125°17'8 7.9
2016-May-24 01:33N 50°12' W 125°23'3 3.1
2016-May-24 00:32N 50°15' W 125°23'5 5.5
2016-May-23 23:33N 50°20' W 125°26'69 7.3
2016-May-23 14:06N 50°45' W 127°07'5 9.6
2016-May-23 13:32N 50°48' W 127°14'9 9.3
2016-May-23 12:33N 50°55' W 127°24'9 8.9
2016-May-23 11:33N 50°60' W 127°36'9 9.3
2016-May-23 10:33N 51°06' W 127°46'  
2016-May-21 00:26N 58°16' W 135°36'8 8.7
2016-May-20 23:33N 58°18' W 135°51'10 8.6
2016-May-20 22:27N 58°15' W 136°08'  
Track history (hours):
 
Tides and Currents Weather Stations Pressure Air Temp Water Temp Dewpoint Dewpoint Depression Visibility Wind Speed Wind Dir Waves Ship Positions

Alaska Titan

Owner: WESTERN TOWBOAT CO, Seattle, WA. More information available from US FCC via Universal Licensing System and Coast Guard Vessel Documentation Center.

Last reported at 2016-May-25 01:34 UTC. Time now 2016-May-29 09:38 UTC.
Position N 47°40' W 122°23'.

Length 40 m.

Type: Tow > 200 m length. MMSI: 367357890.

Date/timePositionNaut miles runAvg speedWind from/ knotsBaromVisibWave heightAir tempDewpointWater temp
2016-May-25 01:34N 47°40' W 122°23'3 2.7
2016-May-25 00:33N 47°37' W 122°24'2 2.3
2016-May-24 23:34N 47°36' W 122°22'8 8.0
2016-May-24 22:33N 47°43' W 122°28'10 9.7
2016-May-24 21:33N 47°52' W 122°29'28 8.3
2016-May-24 18:14N 48°17' W 122°48'811.6
2016-May-24 17:31N 48°25' W 122°45'1313.0
2016-May-24 16:33N 48°38' W 122°44'10 9.8
2016-May-24 15:33N 48°46' W 122°51'1110.8
2016-May-24 14:33N 48°53' W 123°05'1010.1
2016-May-24 13:33N 48°59' W 123°17'10 9.7
2016-May-24 12:33N 49°06' W 123°27'1010.0
2016-May-24 11:32N 49°14' W 123°38'21 9.6
2016-May-24 09:23N 49°26' W 124°03'27 9.6
2016-May-24 06:33N 49°41' W 124°38'9 9.0
2016-May-24 05:33N 49°46' W 124°49'1010.2
2016-May-24 04:32N 49°53' W 125°02'10 9.9
2016-May-24 03:33N 49°60' W 125°12'6 6.3
2016-May-24 02:33N 50°05' W 125°17'8 7.9
2016-May-24 01:33N 50°12' W 125°23'3 3.1
2016-May-24 00:32N 50°15' W 125°23'5 5.5
2016-May-23 23:33N 50°20' W 125°26'69 7.3
2016-May-23 14:06N 50°45' W 127°07'5 9.6
2016-May-23 13:32N 50°48' W 127°14'9 9.3
2016-May-23 12:33N 50°55' W 127°24'9 8.9
2016-May-23 11:33N 50°60' W 127°36'9 9.3
2016-May-23 10:33N 51°06' W 127°46'  
2016-May-21 00:26N 58°16' W 135°36'8 8.7
2016-May-20 23:33N 58°18' W 135°51'10 8.6
2016-May-20 22:27N 58°15' W 136°08'  

Dump ship's entire track history